YUL weather

Montreal / Pierre Elliott Trudeau International Airport
Montréal, Quebec, Canada

Public forecast

Using degrees Celsius for public forecast. Weather courtesy of forecast.io.

METAR (pilot weather report)

Retrieved 2019/02/18 18:00 UTC (43 minutes ago):

CYUL 181800Z 36006KT 330V050 15SM FEW054 BKN075 BKN100 OVC210 M10/M18 A3005 RMK SC1AS4AC2CI1 SLP178

TAF (pilot weather forecast)

Retrieved 2019/02/18 18:42 UTC (57 seconds ago):

TAF TAF CYUL 181738Z 1818/1918 02013KT P6SM BKN120 BECMG 1818/1820 31012KT FM182100 31012KT P6SM BKN160 BECMG 1822/1824 FEW050 FM190300 29010KT P6SM SKC FM191500 26012G22KT P6SM SKC RMK NXT FCST BY 182100Z